createdAt,value
2018-12-04T00:00:28.762Z,87.80
2018-12-04T00:02:55.816Z,87.80
2018-12-04T00:05:22.564Z,87.80
2018-12-04T00:07:49.295Z,87.80
2018-12-04T00:10:16.024Z,87.90
2018-12-04T00:12:42.840Z,87.80
2018-12-04T00:15:09.923Z,87.90
2018-12-04T00:17:36.835Z,87.90
2018-12-04T00:20:03.603Z,87.90
2018-12-04T00:22:30.412Z,87.60
2018-12-04T00:24:57.161Z,87.80
2018-12-04T00:27:23.843Z,87.80
2018-12-04T00:29:50.569Z,87.80
2018-12-04T00:32:17.382Z,87.90
2018-12-04T00:34:44.280Z,87.90
2018-12-04T00:37:17.375Z,87.90
2018-12-04T00:39:44.105Z,87.80
2018-12-04T00:42:11.038Z,87.90
2018-12-04T00:44:37.776Z,87.80
2018-12-04T00:47:04.558Z,88.00
2018-12-04T00:49:31.264Z,88.60
2018-12-04T00:51:58.242Z,87.80
2018-12-04T00:54:25.003Z,87.90
2018-12-04T00:56:51.831Z,87.90
2018-12-04T00:59:18.786Z,87.90
2018-12-04T01:01:45.618Z,87.90
2018-12-04T01:04:12.364Z,87.80
2018-12-04T01:06:39.116Z,87.80
2018-12-04T01:09:05.822Z,87.80
2018-12-04T01:11:32.666Z,87.80
2018-12-04T01:13:59.607Z,87.80
2018-12-04T01:16:26.387Z,87.80
2018-12-04T01:18:53.222Z,87.80
2018-12-04T01:21:19.951Z,87.80
2018-12-04T01:23:46.630Z,87.80
2018-12-04T01:26:13.327Z,87.90
2018-12-04T01:28:40.119Z,87.80
2018-12-04T01:31:06.860Z,87.70
2018-12-04T01:33:33.637Z,87.70
2018-12-04T01:36:00.359Z,87.70
2018-12-04T01:38:27.524Z,87.70
2018-12-04T01:40:54.422Z,87.70
2018-12-04T01:43:21.186Z,87.70
2018-12-04T01:45:48.129Z,87.70
2018-12-04T01:48:14.847Z,87.70
2018-12-04T01:50:41.564Z,87.70
2018-12-04T01:53:08.325Z,88.50
2018-12-04T01:55:35.091Z,87.70
2018-12-04T01:58:01.839Z,87.70
2018-12-04T02:00:28.623Z,87.60
2018-12-04T02:02:55.508Z,87.60
2018-12-04T02:07:54.058Z,87.70
2018-12-04T02:10:20.837Z,87.80
2018-12-04T02:12:47.583Z,87.70
2018-12-04T02:15:14.328Z,87.70
2018-12-04T02:17:41.009Z,87.70
2018-12-04T02:20:07.713Z,87.60
2018-12-04T02:22:34.414Z,87.70
2018-12-04T02:25:01.124Z,87.60
2018-12-04T02:27:27.858Z,88.40
2018-12-04T02:29:54.667Z,87.60
2018-12-04T02:32:21.609Z,87.60
2018-12-04T02:34:48.405Z,87.60
2018-12-04T02:37:15.134Z,87.60
2018-12-04T02:39:41.961Z,87.60
2018-12-04T02:42:08.835Z,88.20
2018-12-04T02:44:35.518Z,87.50
2018-12-04T02:47:02.227Z,87.60
2018-12-04T02:49:28.906Z,87.60
2018-12-04T02:51:55.662Z,87.60
2018-12-04T02:54:22.525Z,87.50
2018-12-04T02:56:49.438Z,87.60
2018-12-04T02:59:16.386Z,87.60
2018-12-04T03:01:43.305Z,87.60
2018-12-04T03:04:10.457Z,87.60
2018-12-04T03:06:37.180Z,87.70
2018-12-04T03:09:03.960Z,87.50
2018-12-04T03:11:30.728Z,87.60
2018-12-04T03:13:57.451Z,87.60
2018-12-04T03:16:24.238Z,87.50
2018-12-04T03:18:50.913Z,87.60
2018-12-04T03:21:17.631Z,87.50
2018-12-04T03:23:44.340Z,87.60
2018-12-04T03:26:11.071Z,87.60
2018-12-04T03:28:37.844Z,87.60
2018-12-04T03:31:04.563Z,87.60
2018-12-04T03:33:31.326Z,87.60
2018-12-04T03:35:58.097Z,87.50
2018-12-04T03:38:25.110Z,87.60
2018-12-04T03:40:51.869Z,87.60
2018-12-04T03:43:18.629Z,87.50
2018-12-04T03:45:45.356Z,87.60
2018-12-04T03:48:12.075Z,87.60
2018-12-04T03:50:38.785Z,87.60
2018-12-04T03:53:05.528Z,87.50
2018-12-04T03:55:32.377Z,87.60
2018-12-04T03:57:59.236Z,87.50
2018-12-04T04:00:26.000Z,87.60
2018-12-04T04:02:52.710Z,87.60
2018-12-04T04:05:19.572Z,88.30
2018-12-04T04:07:46.478Z,87.50
2018-12-04T04:10:13.318Z,87.60
2018-12-04T04:12:40.224Z,87.60
2018-12-04T04:15:06.925Z,87.60
2018-12-04T04:17:33.827Z,87.60
2018-12-04T04:20:00.723Z,87.60
2018-12-04T04:22:27.523Z,87.60
2018-12-04T04:24:54.211Z,87.60
2018-12-04T04:27:20.955Z,87.60
2018-12-04T04:29:47.746Z,87.50
2018-12-04T04:32:14.501Z,87.60
2018-12-04T04:34:41.268Z,87.60
2018-12-04T04:37:07.962Z,87.60
2018-12-04T04:39:34.693Z,87.40
2018-12-04T04:42:01.427Z,87.60
2018-12-04T04:44:28.205Z,87.50
2018-12-04T04:46:54.937Z,87.60
2018-12-04T04:49:21.912Z,87.60
2018-12-04T04:51:48.615Z,87.30
2018-12-04T04:54:15.366Z,87.60
2018-12-04T04:56:42.144Z,87.60
2018-12-04T04:59:08.894Z,87.60
2018-12-04T05:01:35.679Z,87.50
2018-12-04T05:04:02.463Z,87.50
2018-12-04T05:06:29.338Z,87.40
2018-12-04T05:08:56.118Z,87.50
2018-12-04T05:11:22.890Z,87.50
2018-12-04T05:13:49.587Z,87.60
2018-12-04T05:16:16.316Z,87.50
2018-12-04T05:18:44.329Z,87.40
2018-12-04T05:21:11.072Z,87.50
2018-12-04T05:23:37.903Z,87.50
2018-12-04T05:26:04.961Z,87.50
2018-12-04T05:28:31.732Z,87.50
2018-12-04T05:30:58.449Z,87.40
2018-12-04T05:33:25.465Z,87.50
2018-12-04T05:35:52.253Z,87.50
2018-12-04T05:38:18.947Z,87.50
2018-12-04T05:40:45.635Z,87.40
2018-12-04T05:43:12.643Z,87.50
2018-12-04T05:45:39.558Z,87.50
2018-12-04T05:48:06.327Z,87.50
2018-12-04T05:50:33.089Z,87.50
2018-12-04T05:52:59.865Z,88.20
2018-12-04T05:55:26.745Z,87.40
2018-12-04T05:57:53.505Z,87.50
2018-12-04T06:00:20.219Z,87.50
2018-12-04T06:02:51.881Z,87.50
2018-12-04T06:05:18.805Z,87.50
2018-12-04T06:07:45.679Z,87.50
2018-12-04T06:10:12.543Z,87.50
2018-12-04T06:12:39.448Z,87.50
2018-12-04T06:15:06.160Z,87.50
2018-12-04T06:17:32.935Z,87.50
2018-12-04T06:19:59.670Z,87.50
2018-12-04T06:22:26.646Z,87.50
2018-12-04T06:24:53.692Z,87.50
2018-12-04T06:27:20.426Z,87.50
2018-12-04T06:29:47.130Z,87.60
2018-12-04T06:32:13.858Z,87.50
2018-12-04T06:34:40.712Z,88.10
2018-12-04T06:37:07.471Z,87.40
2018-12-04T06:39:34.163Z,87.50
2018-12-04T06:42:00.866Z,87.50
2018-12-04T06:44:27.812Z,87.60
2018-12-04T06:46:54.669Z,87.50
2018-12-04T06:49:21.435Z,87.50
2018-12-04T06:51:48.220Z,87.50
2018-12-04T06:54:14.917Z,87.60
2018-12-04T06:56:41.877Z,87.30
2018-12-04T06:59:08.671Z,87.50
2018-12-04T07:01:35.471Z,87.70
2018-12-04T07:04:02.229Z,87.60
2018-12-04T07:06:28.972Z,87.60
2018-12-04T07:08:55.777Z,87.60
2018-12-04T07:11:22.543Z,87.60
2018-12-04T07:13:49.541Z,87.70
2018-12-04T07:16:16.452Z,87.60
2018-12-04T07:18:43.349Z,88.30
2018-12-04T07:21:10.167Z,87.50
2018-12-04T07:23:37.183Z,87.50
2018-12-04T07:26:04.139Z,87.50
2018-12-04T07:28:31.030Z,87.50
2018-12-04T07:30:57.901Z,87.50
2018-12-04T07:33:24.756Z,87.60
2018-12-04T07:35:51.574Z,87.50
2018-12-04T07:38:18.337Z,87.50
2018-12-04T07:40:45.194Z,87.60
2018-12-04T07:43:12.271Z,87.50
2018-12-04T07:45:39.286Z,87.50
2018-12-04T07:48:06.114Z,87.50
2018-12-04T07:50:32.921Z,87.40
2018-12-04T07:52:59.704Z,87.50
2018-12-04T07:55:26.529Z,87.50
2018-12-04T07:57:53.300Z,87.50
2018-12-04T08:00:20.050Z,87.50
2018-12-04T08:02:46.780Z,87.50
2018-12-04T08:05:13.554Z,87.50
2018-12-04T08:07:40.620Z,87.30
2018-12-04T08:10:07.417Z,87.50
2018-12-04T08:12:34.266Z,87.40
2018-12-04T08:15:00.998Z,87.40
2018-12-04T08:17:27.909Z,87.50
2018-12-04T08:19:55.100Z,87.50
2018-12-04T08:22:21.877Z,87.40
2018-12-04T08:24:48.629Z,87.40
2018-12-04T08:27:15.473Z,87.40
2018-12-04T08:29:42.237Z,87.40
2018-12-04T08:32:09.952Z,87.20
2018-12-04T08:34:36.883Z,87.40
2018-12-04T08:37:03.671Z,87.50
2018-12-04T08:39:30.638Z,87.50
2018-12-04T08:41:57.392Z,87.60
2018-12-04T08:44:24.105Z,88.30
2018-12-04T08:46:50.820Z,87.50
2018-12-04T08:49:17.870Z,87.40
2018-12-04T08:51:44.957Z,87.40
2018-12-04T08:54:11.765Z,87.50
2018-12-04T08:56:38.503Z,87.60
2018-12-04T08:59:05.343Z,87.40
2018-12-04T09:01:32.123Z,87.40
2018-12-04T09:03:59.252Z,87.40
2018-12-04T09:06:28.453Z,87.70
2018-12-04T09:08:55.525Z,87.40
2018-12-04T09:11:22.537Z,87.40
2018-12-04T09:13:49.339Z,87.50
2018-12-04T09:16:16.578Z,87.40
2018-12-04T09:18:43.473Z,87.40
2018-12-04T09:21:10.336Z,87.40
2018-12-04T09:23:37.343Z,87.40
2018-12-04T09:26:04.275Z,87.50
2018-12-04T09:28:31.107Z,87.40
2018-12-04T09:30:58.301Z,87.40
2018-12-04T09:33:25.109Z,87.40
2018-12-04T09:35:51.919Z,87.40
2018-12-04T09:38:18.808Z,87.40
2018-12-04T09:40:46.042Z,87.40
2018-12-04T09:43:12.967Z,87.50
2018-12-04T09:45:39.715Z,87.50
2018-12-04T09:48:06.486Z,87.50
2018-12-04T09:50:33.295Z,87.50
2018-12-04T09:53:00.239Z,87.50
2018-12-04T09:55:27.026Z,87.30
2018-12-04T09:57:53.814Z,87.50
2018-12-04T10:00:20.788Z,87.50
2018-12-04T10:02:47.658Z,87.50
2018-12-04T10:05:14.428Z,87.50
2018-12-04T10:07:41.312Z,87.50
2018-12-04T10:10:08.001Z,87.50
2018-12-04T10:12:34.800Z,87.50
2018-12-04T10:15:01.546Z,87.50
2018-12-04T10:17:29.014Z,87.60
2018-12-04T10:19:55.749Z,87.40
2018-12-04T10:22:22.627Z,87.50
2018-12-04T10:24:49.693Z,87.50
2018-12-04T10:27:16.479Z,87.50
2018-12-04T10:29:43.432Z,87.50
2018-12-04T10:32:10.381Z,87.30
2018-12-04T10:34:37.206Z,87.50
2018-12-04T10:37:03.988Z,87.50
2018-12-04T10:39:30.791Z,87.50
2018-12-04T10:41:57.579Z,88.30
2018-12-04T10:44:24.681Z,87.60
2018-12-04T10:46:51.692Z,87.60
2018-12-04T10:49:18.538Z,88.30
2018-12-04T10:51:45.422Z,87.30
2018-12-04T10:54:12.263Z,87.60
2018-12-04T10:56:39.422Z,87.60
2018-12-04T10:59:06.226Z,87.50
2018-12-04T11:01:38.626Z,87.60
2018-12-04T11:04:05.498Z,87.60
2018-12-04T11:06:32.456Z,87.60
2018-12-04T11:09:04.323Z,87.50
2018-12-04T11:11:31.200Z,87.60
2018-12-04T11:13:57.934Z,87.60
2018-12-04T11:16:24.908Z,87.60
2018-12-04T11:18:51.715Z,87.60
2018-12-04T11:21:18.530Z,87.70
2018-12-04T11:23:45.250Z,87.70
2018-12-04T11:26:12.034Z,87.70
2018-12-04T11:28:39.096Z,87.70
2018-12-04T11:31:05.829Z,87.60
2018-12-04T11:33:32.677Z,87.70
2018-12-04T11:35:59.466Z,87.60
2018-12-04T11:38:26.218Z,87.70
2018-12-04T11:40:53.387Z,87.70
2018-12-04T11:43:20.113Z,87.60
2018-12-04T11:45:46.838Z,87.70
2018-12-04T11:48:13.643Z,87.70
2018-12-04T11:50:40.536Z,87.70
2018-12-04T11:53:07.382Z,87.70
2018-12-04T11:55:34.108Z,87.70
2018-12-04T11:58:01.085Z,87.70
2018-12-04T12:00:32.821Z,87.70
2018-12-04T12:02:59.563Z,87.70
2018-12-04T12:05:26.310Z,87.80
2018-12-04T12:07:53.233Z,87.70
2018-12-04T12:10:19.912Z,87.70
2018-12-04T12:12:46.622Z,87.60
2018-12-04T12:15:17.972Z,87.70
2018-12-04T12:17:42.305Z,87.80
2018-12-04T12:20:09.047Z,87.70
2018-12-04T12:22:35.830Z,87.70
2018-12-04T12:25:02.854Z,87.80
2018-12-04T12:27:29.803Z,87.70
2018-12-04T12:29:56.571Z,87.60
2018-12-04T12:32:23.352Z,87.70
2018-12-04T12:34:50.078Z,87.70
2018-12-04T12:37:17.249Z,87.80
2018-12-04T12:39:44.262Z,87.80
2018-12-04T12:42:11.093Z,87.70
2018-12-04T12:44:38.451Z,87.80
2018-12-04T12:47:05.379Z,87.80
2018-12-04T12:49:32.303Z,87.70
2018-12-04T12:51:59.111Z,87.80
2018-12-04T12:54:25.825Z,87.70
2018-12-04T12:56:52.898Z,87.80
2018-12-04T12:59:19.961Z,87.70
2018-12-04T13:01:46.776Z,87.80
2018-12-04T13:04:13.580Z,87.70
2018-12-04T13:06:40.376Z,87.70
2018-12-04T13:09:07.141Z,87.70
2018-12-04T13:11:33.947Z,87.70
2018-12-04T13:14:01.035Z,87.50
2018-12-04T13:16:27.904Z,87.80
2018-12-04T13:18:54.675Z,87.70
2018-12-04T13:21:21.561Z,87.80
2018-12-04T13:23:48.377Z,87.70
2018-12-04T13:26:15.283Z,87.50
2018-12-04T13:28:42.127Z,88.50
2018-12-04T13:31:09.153Z,87.70
2018-12-04T13:33:35.929Z,87.70
2018-12-04T13:36:02.761Z,87.70
2018-12-04T13:38:29.652Z,87.60
2018-12-04T13:40:56.354Z,87.70
2018-12-04T13:43:23.168Z,87.70
2018-12-04T13:45:49.956Z,87.70
2018-12-04T13:48:16.738Z,87.70
2018-12-04T13:50:43.686Z,87.70
2018-12-04T13:53:10.698Z,87.70
2018-12-04T13:55:37.657Z,87.70
2018-12-04T13:58:04.693Z,87.70
2018-12-04T14:00:31.518Z,87.70
2018-12-04T14:02:58.350Z,87.80
2018-12-04T14:05:25.239Z,87.70
2018-12-04T14:07:52.298Z,87.70
2018-12-04T14:10:19.204Z,87.70
2018-12-04T14:12:46.064Z,87.70
2018-12-04T14:15:12.852Z,87.70
2018-12-04T14:17:39.961Z,88.40
2018-12-04T14:20:07.197Z,87.70
2018-12-04T14:22:34.081Z,87.60
2018-12-04T14:25:00.894Z,88.40
2018-12-04T14:27:27.618Z,87.60
2018-12-04T14:29:54.558Z,87.60
2018-12-04T14:32:21.428Z,87.70
2018-12-04T14:34:48.462Z,87.60
2018-12-04T14:37:15.343Z,87.70
2018-12-04T14:39:42.297Z,87.60
2018-12-04T14:42:09.257Z,87.70
2018-12-04T14:44:36.645Z,87.70
2018-12-04T14:47:04.465Z,87.70
2018-12-04T14:49:31.252Z,87.50
2018-12-04T14:51:58.271Z,87.80
2018-12-04T14:54:25.185Z,87.70
2018-12-04T14:56:52.086Z,87.70
2018-12-04T14:59:19.023Z,87.70
2018-12-04T15:01:45.892Z,87.60
2018-12-04T15:04:12.920Z,87.60
2018-12-04T15:06:40.141Z,87.60
2018-12-04T15:09:07.280Z,87.70
2018-12-04T15:11:34.116Z,87.70
2018-12-04T15:14:01.010Z,88.20
2018-12-04T15:16:28.053Z,87.70
2018-12-04T15:18:55.374Z,87.60
2018-12-04T15:21:22.548Z,87.60
2018-12-04T15:23:49.548Z,87.60
2018-12-04T15:26:16.451Z,87.60
2018-12-04T15:28:43.360Z,87.60
2018-12-04T15:31:10.154Z,87.60
2018-12-04T15:33:37.061Z,87.60
2018-12-04T15:36:03.950Z,87.60
2018-12-04T15:38:31.163Z,87.60
2018-12-04T15:40:58.637Z,87.60
2018-12-04T15:43:25.490Z,87.60
2018-12-04T15:45:52.529Z,87.60
2018-12-04T15:48:19.491Z,87.60
2018-12-04T15:50:47.214Z,87.50
2018-12-04T15:53:14.371Z,87.60
2018-12-04T15:55:41.256Z,87.60
2018-12-04T15:58:08.082Z,87.60
2018-12-04T16:00:34.852Z,87.50
2018-12-04T16:03:01.569Z,87.50
2018-12-04T16:05:28.400Z,87.60
2018-12-04T16:07:55.247Z,87.60
2018-12-04T16:10:21.967Z,87.50
2018-12-04T16:12:48.757Z,87.60
2018-12-04T16:15:15.499Z,87.50
2018-12-04T16:17:42.353Z,87.60
2018-12-04T16:20:09.203Z,87.50
2018-12-04T16:22:36.024Z,87.50
2018-12-04T16:25:03.093Z,87.50
2018-12-04T16:27:30.158Z,87.50
2018-12-04T16:29:57.219Z,87.60
2018-12-04T16:32:24.114Z,87.50
2018-12-04T16:34:51.002Z,87.60
2018-12-04T16:37:17.779Z,87.60
2018-12-04T16:39:44.754Z,87.60
2018-12-04T16:42:11.833Z,87.50
2018-12-04T16:44:38.700Z,87.40
2018-12-04T16:47:05.468Z,87.50
2018-12-04T16:49:32.239Z,87.50
2018-12-04T16:51:59.040Z,87.40
2018-12-04T16:54:25.796Z,87.40
2018-12-04T16:56:52.608Z,87.50
2018-12-04T16:59:19.631Z,87.40
2018-12-04T17:01:46.506Z,87.40
2018-12-04T17:04:13.333Z,87.40
2018-12-04T17:06:40.060Z,87.40
2018-12-04T17:09:06.793Z,87.60
2018-12-04T17:11:33.707Z,87.50
2018-12-04T17:14:00.986Z,87.40
2018-12-04T17:16:27.768Z,87.10
2018-12-04T17:18:54.602Z,87.40
2018-12-04T17:21:21.418Z,87.30
2018-12-04T17:23:48.114Z,87.40
2018-12-04T17:26:15.050Z,87.40
2018-12-04T17:28:41.932Z,87.40
2018-12-04T17:31:08.750Z,87.40
2018-12-04T17:33:35.668Z,87.30
2018-12-04T17:36:02.453Z,87.30
2018-12-04T17:38:29.417Z,87.40
2018-12-04T17:40:56.174Z,87.40
2018-12-04T17:43:22.918Z,87.40
2018-12-04T17:45:49.647Z,87.30
2018-12-04T17:48:16.516Z,87.40
2018-12-04T17:50:43.246Z,87.30
2018-12-04T17:53:10.078Z,87.40
2018-12-04T17:55:36.879Z,87.30
2018-12-04T17:58:03.609Z,87.30
2018-12-04T18:00:30.383Z,87.40
2018-12-04T18:02:57.081Z,87.50
2018-12-04T18:05:24.031Z,87.30
2018-12-04T18:07:50.913Z,87.30
2018-12-04T18:10:17.785Z,87.30
2018-12-04T18:12:44.555Z,87.30
2018-12-04T18:15:11.475Z,87.30
2018-12-04T18:17:38.379Z,87.30
2018-12-04T18:20:05.313Z,87.30
2018-12-04T18:22:32.151Z,87.30
2018-12-04T18:24:58.920Z,87.30
2018-12-04T18:27:25.635Z,87.30
2018-12-04T18:29:53.015Z,87.30
2018-12-04T18:32:20.060Z,87.30
2018-12-04T18:34:46.843Z,87.30
2018-12-04T18:37:13.561Z,87.30
2018-12-04T18:39:40.263Z,87.30
2018-12-04T18:42:07.128Z,87.30
2018-12-04T18:44:33.878Z,87.30
2018-12-04T18:47:00.589Z,87.30
2018-12-04T18:49:27.317Z,87.30
2018-12-04T18:51:54.023Z,87.40
2018-12-04T18:54:20.841Z,87.20
2018-12-04T18:56:47.649Z,87.30
2018-12-04T18:59:14.377Z,87.30
2018-12-04T19:01:41.607Z,87.30
2018-12-04T19:04:08.417Z,87.30
2018-12-04T19:06:35.425Z,87.30
2018-12-04T19:09:02.419Z,87.70
2018-12-04T19:11:29.210Z,87.30
2018-12-04T19:13:55.924Z,87.30
2018-12-04T19:16:22.660Z,87.30
2018-12-04T19:18:49.454Z,87.30
2018-12-04T19:21:16.157Z,87.30
2018-12-04T19:23:43.108Z,87.30
2018-12-04T19:26:09.986Z,87.30
2018-12-04T19:28:36.748Z,87.30
2018-12-04T19:31:03.778Z,87.30
2018-12-04T19:33:30.744Z,87.30
2018-12-04T19:35:57.479Z,87.30
2018-12-04T19:38:24.192Z,87.20
2018-12-04T19:40:51.185Z,87.30
2018-12-04T19:43:19.855Z,87.30
2018-12-04T19:45:46.809Z,87.30
2018-12-04T19:48:13.750Z,87.40
2018-12-04T19:50:40.555Z,87.30
2018-12-04T19:53:07.414Z,87.20
2018-12-04T19:55:34.237Z,87.20
2018-12-04T19:58:01.368Z,87.20
2018-12-04T20:00:28.264Z,87.20
2018-12-04T20:02:55.153Z,87.20
2018-12-04T20:05:21.906Z,87.20
2018-12-04T20:07:48.647Z,87.20
2018-12-04T20:10:15.378Z,87.20
2018-12-04T20:12:42.209Z,87.20
2018-12-04T20:15:09.102Z,87.20
2018-12-04T20:17:35.868Z,87.30
2018-12-04T20:20:02.817Z,87.30
2018-12-04T20:22:29.579Z,87.30
2018-12-04T20:24:56.275Z,87.20
2018-12-04T20:27:23.227Z,87.30
2018-12-04T20:29:49.976Z,87.30
2018-12-04T20:32:16.742Z,87.30
2018-12-04T20:34:43.806Z,87.30
2018-12-04T20:37:11.571Z,87.30
2018-12-04T20:39:38.706Z,86.90
2018-12-04T20:42:08.395Z,87.30
2018-12-04T20:44:34.194Z,87.20
2018-12-04T20:47:01.057Z,87.30
2018-12-04T20:49:28.069Z,87.20
2018-12-04T20:51:55.133Z,87.30
2018-12-04T20:54:22.021Z,87.30
2018-12-04T20:56:48.942Z,87.30
2018-12-04T20:59:15.684Z,87.30
2018-12-04T21:01:42.428Z,87.30
2018-12-04T21:04:09.550Z,87.30
2018-12-04T21:06:36.377Z,87.20
2018-12-04T21:09:03.515Z,87.20
2018-12-04T21:11:30.385Z,87.20
2018-12-04T21:13:57.342Z,87.10
2018-12-04T21:16:24.335Z,87.10
2018-12-04T21:18:51.121Z,87.20
2018-12-04T21:21:17.932Z,87.30
2018-12-04T21:23:44.858Z,87.30
2018-12-04T21:26:11.576Z,87.30
2018-12-04T21:28:40.350Z,87.30
2018-12-04T21:31:12.772Z,87.30
2018-12-04T21:33:45.136Z,87.30
2018-12-04T21:36:17.572Z,87.30
2018-12-04T21:38:49.929Z,87.30
2018-12-04T21:41:22.565Z,87.30
2018-12-04T21:43:55.054Z,87.20
2018-12-04T21:46:27.451Z,87.30
2018-12-04T21:48:54.220Z,87.30
2018-12-04T21:51:21.107Z,87.20
2018-12-04T21:53:47.942Z,87.20
2018-12-04T21:56:14.659Z,87.30
2018-12-04T21:58:41.365Z,87.30
2018-12-04T22:01:08.225Z,87.30
2018-12-04T22:03:34.999Z,87.30
2018-12-04T22:06:02.279Z,87.10
2018-12-04T22:08:29.114Z,87.30
2018-12-04T22:10:55.992Z,87.20
2018-12-04T22:13:22.676Z,87.30
2018-12-04T22:15:49.458Z,87.20
2018-12-04T22:18:16.356Z,87.20
2018-12-04T22:20:43.136Z,87.20
2018-12-04T22:23:09.996Z,87.20
2018-12-04T22:25:36.962Z,87.20
2018-12-04T22:28:04.029Z,87.20
2018-12-04T22:30:32.337Z,87.30
2018-12-04T22:33:00.542Z,87.30
2018-12-04T22:35:28.269Z,87.20
2018-12-04T22:37:56.286Z,87.30
2018-12-04T22:40:23.029Z,87.20
2018-12-04T22:42:51.241Z,87.20
2018-12-04T22:45:23.957Z,87.20
2018-12-04T22:47:51.790Z,87.30
2018-12-04T22:50:20.580Z,87.20
2018-12-04T22:52:48.163Z,87.20
2018-12-04T22:55:15.584Z,86.70
2018-12-04T22:57:43.497Z,87.20
2018-12-04T23:00:11.449Z,87.20
2018-12-04T23:02:40.167Z,87.30
2018-12-04T23:05:08.546Z,87.20
2018-12-04T23:07:35.659Z,87.20
2018-12-04T23:10:03.855Z,87.30
2018-12-04T23:12:32.241Z,87.30
2018-12-04T23:15:00.665Z,87.20
2018-12-04T23:17:29.051Z,87.20
2018-12-04T23:19:56.739Z,87.30
2018-12-04T23:22:24.641Z,87.30
2018-12-04T23:24:51.949Z,87.30
2018-12-04T23:27:19.285Z,87.30
2018-12-04T23:29:46.923Z,87.30
2018-12-04T23:32:15.903Z,87.20
2018-12-04T23:34:43.295Z,87.20
2018-12-04T23:37:10.830Z,87.20
2018-12-04T23:39:38.798Z,87.30
2018-12-04T23:42:05.896Z,87.30
2018-12-04T23:44:33.617Z,87.30
2018-12-04T23:47:01.184Z,87.30
2018-12-04T23:49:29.735Z,87.30
2018-12-04T23:51:58.070Z,87.20
2018-12-04T23:54:25.870Z,87.20
2018-12-04T23:56:53.554Z,87.30
2018-12-04T23:59:20.440Z,87.30
